Time;durP1;ratioP1;P1;durP2;ratioP2;P2;SDS_P1;SDS_P2;PMS_P1;PMS_P2;Temp;Humidity;BMP_temperature;BMP_pressure;BME280_temperature;BME280_humidity;BME280_pressure;Samples;Min_cycle;Max_cycle;Signal;HPM_P1;HPM_P2
2022/04/26 03:38:09;;;;;;;12.37;8.55;;;;;;;12.23;82.40;99906.77;1804200;79;21244;-59
2022/04/26 03:41:17;;;;;;;14.00;9.33;;;;;;;12.30;82.20;99904.94;1737244;80;21233;-60
2022/04/26 03:44:24;;;;;;;14.53;6.65;;;;;;;12.36;82.00;99910.48;1785525;79;21764;-59
2022/04/26 03:47:30;;;;;;;13.85;6.80;;;;;;;12.43;81.81;99905.88;1804242;79;21331;-60
2022/04/26 03:50:39;;;;;;;13.40;6.50;;;;;;;12.49;81.46;99915.23;1812446;79;21362;-60
2022/04/26 03:53:47;;;;;;;7.17;5.42;;;;;;;12.55;81.27;99914.42;1737868;82;21264;-60
2022/04/26 03:56:52;;;;;;;17.00;6.33;;;;;;;12.61;81.06;99914.98;1804730;79;21223;-59
2022/04/26 03:59:58;;;;;;;11.30;6.10;;;;;;;12.68;80.92;99925.52;1804889;79;21176;-59
2022/04/26 04:03:04;;;;;;;9.63;6.33;;;;;;;12.75;80.67;99917.63;1804706;79;21200;-60
2022/04/26 04:06:13;;;;;;;12.78;6.97;;;;;;;12.82;80.46;99924.03;1804804;79;21165;-59
2022/04/26 04:09:18;;;;;;;12.50;5.87;;;;;;;12.87;80.30;99919.30;1804911;79;21189;-59
2022/04/26 04:12:26;;;;;;;11.53;6.28;;;;;;;12.93;80.15;99923.47;1804755;79;21169;-59
2022/04/26 04:15:36;;;;;;;12.37;5.95;;;;;;;12.98;80.06;99927.84;1787173;79;21173;-59
2022/04/26 04:22:07;;;;;;;11.53;6.30;;;;;;;13.09;79.51;99930.05;1804608;79;21203;-59
2022/04/26 04:25:19;;;;;;;9.73;5.28;;;;;;;13.16;79.21;99927.34;1738685;82;21197;-60
2022/04/26 04:28:25;;;;;;;13.18;5.35;;;;;;;13.20;78.94;99929.47;1804690;79;21224;-60
2022/04/26 04:31:32;;;;;;;12.05;4.75;;;;;;;13.26;78.82;99926.41;1804851;79;21888;-59
2022/04/26 04:34:40;;;;;;;9.63;5.15;;;;;;;13.34;78.66;99929.86;1737607;82;21284;-60
2022/04/26 04:37:49;;;;;;;9.23;4.83;;;;;;;13.44;78.52;99928.09;1804918;79;21188;-59
2022/04/26 04:40:56;;;;;;;7.53;3.98;;;;;;;13.54;78.38;99929.40;1721919;82;21682;-59
2022/04/26 04:44:02;;;;;;;9.25;3.52;;;;;;;13.70;78.19;99925.98;1800831;79;21201;-59
2022/04/26 04:47:09;;;;;;;12.65;4.53;;;;;;;13.84;77.69;99924.44;1804665;79;21180;-59
2022/04/26 04:50:18;;;;;;;8.83;3.77;;;;;;;14.01;77.00;99918.85;1813054;79;21374;-59
2022/04/26 04:53:29;;;;;;;9.78;3.37;;;;;;;14.17;75.73;99934.12;1738412;82;21244;-59
2022/04/26 04:56:34;;;;;;;9.48;3.52;;;;;;;14.29;74.96;99932.45;1803487;79;21244;-59
2022/04/26 04:59:41;;;;;;;9.13;3.42;;;;;;;14.38;73.81;99931.21;1811946;79;21439;-57
2022/04/26 05:02:48;;;;;;;9.73;4.30;;;;;;;14.46;73.27;99942.02;1803370;79;21342;-56
2022/04/26 05:05:53;;;;;;;9.25;4.28;;;;;;;14.53;72.61;99948.36;1736517;82;21204;-58
2022/04/26 05:09:04;;;;;;;8.15;3.40;;;;;;;14.60;72.87;99945.91;1802982;79;21221;-58
2022/04/26 05:12:12;;;;;;;12.10;3.52;;;;;;;14.71;72.52;99941.69;1810597;79;22041;-58
2022/04/26 05:15:20;;;;;;;9.85;3.08;;;;;;;14.82;72.15;99942.42;1799093;79;21721;-57
2022/04/26 05:18:26;;;;;;;8.25;3.15;;;;;;;14.92;71.42;99945.60;1778884;80;21220;-56
2022/04/26 05:21:34;;;;;;;6.15;2.22;;;;;;;15.00;71.38;99942.59;1778518;80;21220;-56
2022/04/26 05:24:58;;;;;;;9.05;2.30;;;;;;;15.12;71.43;99947.78;1792606;79;21214;-55
2022/04/26 05:28:05;;;;;;;9.55;2.95;;;;;;;15.19;70.12;99949.97;1771862;80;21265;-56
2022/04/26 05:31:14;;;;;;;12.13;2.80;;;;;;;15.27;69.87;99946.98;1779620;80;21703;-58
2022/04/26 05:34:20;;;;;;;10.28;3.27;;;;;;;15.36;70.02;99946.22;1780010;80;21263;-57
2022/04/26 05:37:30;;;;;;;8.20;2.72;;;;;;;15.46;69.66;99936.45;1789367;79;21729;-57
2022/04/26 05:40:39;;;;;;;8.23;2.62;;;;;;;15.54;69.46;99941.72;1795922;79;21220;-59
2022/04/26 05:43:45;;;;;;;7.75;2.58;;;;;;;15.63;69.23;99938.19;1765171;79;22078;-58
2022/04/26 05:46:55;;;;;;;7.08;2.37;;;;;;;15.68;68.69;99941.97;1741999;81;21784;-56
2022/04/26 05:50:04;;;;;;;7.62;2.30;;;;;;;15.71;68.38;99937.42;1739350;82;21555;-57
2022/04/26 05:53:10;;;;;;;7.22;2.47;;;;;;;15.73;68.26;99942.17;1758883;79;21182;-57
2022/04/26 05:56:15;;;;;;;11.30;2.17;;;;;;;15.76;68.31;99938.96;1685457;83;21193;-57
2022/04/26 05:59:23;;;;;;;7.72;2.40;;;;;;;15.80;68.58;99936.61;1786277;80;21225;-57
2022/04/26 06:02:29;;;;;;;9.90;2.92;;;;;;;15.85;68.40;99934.05;1708258;83;21811;-58
2022/04/26 06:05:36;;;;;;;7.47;2.42;;;;;;;15.90;68.41;99942.52;1698486;84;21757;-56
2022/04/26 06:08:44;;;;;;;10.90;2.72;;;;;;;15.97;68.32;99943.31;1710962;82;21307;-59
2022/04/26 06:11:51;;;;;;;14.78;2.92;;;;;;;16.00;67.82;99942.34;1733858;82;21716;-56
2022/04/26 06:14:57;;;;;;;14.68;7.70;;;;;;;16.03;67.61;99948.80;1734014;82;21203;-57
2022/04/26 06:18:04;;;;;;;9.55;2.40;;;;;;;16.06;67.48;99946.97;1733872;82;21235;-57
2022/04/26 06:21:10;;;;;;;8.43;1.98;;;;;;;16.10;67.54;99944.09;1744457;80;21232;-58
2022/04/26 06:24:18;;;;;;;8.95;2.17;;;;;;;16.14;67.39;99944.50;1697615;84;21195;-57
2022/04/26 06:27:24;;;;;;;10.43;3.00;;;;;;;16.22;67.53;99950.59;1753685;79;21193;-59
2022/04/26 06:30:30;;;;;;;10.85;2.72;;;;;;;16.28;67.06;99955.77;1739328;81;21192;-59
2022/04/26 06:33:37;;;;;;;7.62;2.12;;;;;;;16.37;67.24;99958.05;1739695;81;21268;-58
2022/04/26 06:36:44;;;;;;;9.50;1.95;;;;;;;16.48;67.18;99957.02;1738538;81;21642;-58
2022/04/26 06:39:51;;;;;;;9.25;2.52;;;;;;;16.55;66.59;99964.22;1741387;81;21208;-59
2022/04/26 06:42:59;;;;;;;10.30;2.60;;;;;;;16.63;66.56;99959.80;1738319;81;21605;-58
2022/04/26 06:46:08;;;;;;;7.33;2.40;;;;;;;16.69;66.47;99958.88;1734023;82;21233;-56
2022/04/26 06:49:16;;;;;;;7.45;2.08;;;;;;;16.77;66.01;99961.89;1734766;82;21229;-61
2022/04/26 06:52:23;;;;;;;7.65;2.65;;;;;;;16.77;65.50;99964.66;1734243;82;21733;-57
2022/04/26 06:55:31;;;;;;;11.03;2.72;;;;;;;16.83;65.66;99965.98;1724707;81;21233;-59
2022/04/26 06:58:39;;;;;;;9.30;2.60;;;;;;;16.90;65.38;99966.78;1744828;81;21226;-58
2022/04/26 07:01:44;;;;;;;11.65;2.33;;;;;;;16.96;65.33;99962.25;1747331;80;21192;-56
2022/04/26 07:04:52;;;;;;;6.72;2.10;;;;;;;17.02;65.10;99971.02;1757194;80;21279;-57
2022/04/26 07:08:00;;;;;;;6.37;1.92;;;;;;;17.07;64.75;99957.36;1749717;81;21204;-56
2022/04/26 07:11:07;;;;;;;6.08;1.87;;;;;;;17.14;64.39;99963.69;1752226;80;21734;-57
2022/04/26 07:14:19;;;;;;;6.80;1.95;;;;;;;17.21;64.31;99964.44;1751823;80;21220;-58
2022/04/26 07:17:25;;;;;;;8.28;2.30;;;;;;;17.29;64.03;99966.38;1766889;80;21253;-56
2022/04/26 07:20:31;;;;;;;8.23;2.20;;;;;;;17.38;64.08;99973.30;1769158;80;21156;-58
2022/04/26 07:23:37;;;;;;;5.87;2.02;;;;;;;17.51;63.70;99976.48;1738466;81;21828;-58
2022/04/26 07:26:47;;;;;;;5.15;1.80;;;;;;;17.66;63.63;99972.81;1748409;81;21758;-59
2022/04/26 07:29:57;;;;;;;6.40;1.85;;;;;;;17.83;62.70;99978.02;1757202;81;21191;-59
2022/04/26 07:36:30;;;;;;;10.05;4.42;;;;;;;17.98;61.77;99976.23;1773766;80;21520;-57
2022/04/26 07:39:42;;;;;;;5.95;2.58;;;;;;;18.14;61.32;99978.36;1772668;81;21748;-57
2022/04/26 07:42:52;;;;;;;6.80;2.50;;;;;;;18.26;61.35;99985.64;1771259;81;21212;-60
2022/04/26 07:45:59;;;;;;;8.35;1.70;;;;;;;18.32;60.37;99981.92;1763816;79;21256;-60
2022/04/26 07:49:04;;;;;;;4.55;1.60;;;;;;;18.30;60.52;99988.79;1771838;79;21634;-60
2022/04/26 07:52:11;;;;;;;9.33;2.15;;;;;;;18.38;60.74;99981.00;1777994;79;21197;-62
2022/04/26 07:55:18;;;;;;;9.18;2.60;;;;;;;18.50;60.06;99986.06;1707747;84;21272;-60
2022/04/26 07:58:26;;;;;;;8.18;2.20;;;;;;;18.55;59.39;99993.09;1773929;79;21864;-60
2022/04/26 08:01:38;;;;;;;6.80;2.10;;;;;;;18.63;58.91;99984.44;1760890;81;21228;-58
2022/04/26 08:04:45;;;;;;;12.33;2.90;;;;;;;18.61;57.63;99982.47;1697261;84;21205;-59
2022/04/26 08:07:52;;;;;;;6.20;2.10;;;;;;;18.59;57.43;99983.77;1760983;80;21201;-59
2022/04/26 08:11:00;;;;;;;7.17;2.25;;;;;;;18.59;57.73;99984.63;1698038;84;21252;-59
2022/04/26 08:14:07;;;;;;;7.92;1.60;;;;;;;18.70;57.42;99982.95;1702201;82;21244;-61
2022/04/26 08:17:19;;;;;;;7.33;2.20;;;;;;;18.88;58.13;99980.95;1781563;79;21291;-61
2022/04/26 08:20:26;;;;;;;7.40;2.10;;;;;;;19.00;56.98;99979.56;1712099;82;21230;-62
2022/04/26 08:23:35;;;;;;;6.00;1.95;;;;;;;19.07;56.65;99982.55;1791957;79;21216;-62
2022/04/26 08:30:09;;;;;;;11.00;2.25;;;;;;;19.33;55.57;99984.56;1803925;79;21714;-62
2022/04/26 08:33:18;;;;;;;7.12;2.30;;;;;;;19.39;55.87;99983.59;1735566;82;21204;-63
2022/04/26 08:36:24;;;;;;;7.25;2.27;;;;;;;19.49;55.69;99985.22;1736075;82;21188;-59
2022/04/26 08:39:34;;;;;;;7.83;1.95;;;;;;;19.60;55.67;99978.23;1801596;79;21773;-60
2022/04/26 08:42:46;;;;;;;7.03;1.90;;;;;;;19.72;55.10;99979.61;1736103;82;21260;-59
2022/04/26 08:45:58;;;;;;;6.25;2.17;;;;;;;19.70;54.33;99973.45;1732491;82;21264;-59
2022/04/26 08:52:26;;;;;;;4.85;1.82;;;;;;;19.78;54.09;99975.84;1756963;81;21213;-59
2022/04/26 08:55:35;;;;;;;5.95;2.40;;;;;;;19.85;53.63;99974.62;1769156;79;21234;-62
2022/04/26 08:58:42;;;;;;;12.50;2.40;;;;;;;19.89;54.29;99980.53;1775533;79;21169;-60
2022/04/26 09:01:49;;;;;;;5.60;1.75;;;;;;;19.89;54.08;99984.16;1772200;79;21278;-59
2022/04/26 09:05:02;;;;;;;7.28;1.77;;;;;;;19.76;54.29;99980.80;1769042;79;21228;-59
2022/04/26 09:08:10;;;;;;;6.30;2.05;;;;;;;19.77;54.34;99991.70;1775009;80;21236;-57
2022/04/26 09:11:34;;;;;;;7.67;2.12;;;;;;;19.87;54.10;99988.29;1767326;81;21185;-56
2022/04/26 09:14:50;;;;;;;5.67;2.02;;;;;;;19.94;53.72;99990.37;1774701;80;21530;-57
2022/04/26 09:17:57;;;;;;;6.83;1.55;;;;;;;19.98;53.04;99976.30;1773572;80;21279;-58
2022/04/26 09:21:04;;;;;;;5.55;1.60;;;;;;;20.03;52.60;99977.77;1772456;80;21172;-56
2022/04/26 09:24:14;;;;;;;6.95;1.62;;;;;;;20.05;51.71;99985.32;1774783;80;21208;-57
2022/04/26 09:27:25;;;;;;;7.50;1.92;;;;;;;19.91;51.78;99974.19;1775189;80;21196;-57
2022/04/26 09:30:35;;;;;;;9.08;1.92;;;;;;;19.93;51.88;99985.34;1774632;80;21709;-55
2022/04/26 09:33:51;;;;;;;6.92;1.80;;;;;;;19.96;52.27;99977.94;1778289;79;21265;-57
2022/04/26 09:36:57;;;;;;;7.20;1.72;;;;;;;20.14;51.70;99987.49;1771499;79;21250;-57
2022/04/26 09:40:11;;;;;;;6.55;1.67;;;;;;;20.33;51.48;99979.80;1774383;79;21177;-58
2022/04/26 09:43:23;;;;;;;6.58;1.60;;;;;;;20.46;50.95;99975.32;1770359;79;21193;-58
2022/04/26 09:46:30;;;;;;;8.05;1.70;;;;;;;20.52;50.16;99983.52;1769729;79;21212;-58
2022/04/26 09:49:44;;;;;;;4.35;1.47;;;;;;;20.67;50.42;99982.42;1770774;80;21225;-58
2022/04/26 09:52:50;;;;;;;;;;;;;;;20.80;50.14;99983.45;1748259;81;21300;-56
2022/04/26 09:55:59;;;;;;;3.15;1.17;;;;;;;20.91;49.87;99973.91;1784711;79;20225;-58
2022/04/26 09:59:11;;;;;;;7.55;1.67;;;;;;;20.95;49.85;99982.88;1770824;79;21757;-58
2022/04/26 10:02:18;;;;;;;6.85;1.70;;;;;;;21.02;49.90;99979.43;1772690;79;21274;-56
2022/04/26 10:05:24;;;;;;;7.97;2.70;;;;;;;21.05;49.49;99980.84;1746331;79;21713;-52
2022/04/26 10:08:30;;;;;;;5.30;2.95;;;;;;;21.07;48.66;99993.97;1778759;79;21609;-54
2022/04/26 10:11:37;;;;;;;4.03;1.40;;;;;;;21.01;48.04;99990.81;1770438;79;21178;-55
2022/04/26 10:14:46;;;;;;;10.50;1.20;;;;;;;20.94;47.79;99997.05;1771262;79;21319;-55
2022/04/26 10:17:59;;;;;;;6.78;1.62;;;;;;;21.11;47.44;99989.03;1776799;79;21177;-54
2022/04/26 10:21:05;;;;;;;;;;;;;;;21.34;47.39;99991.64;1778192;79;21178;-55
2022/04/26 10:24:21;;;;;;;4.20;1.00;;;;;;;21.55;46.51;99990.83;1737347;81;20605;-56
2022/04/26 10:27:30;;;;;;;4.58;1.25;;;;;;;21.74;45.75;99995.00;1721170;82;22077;-52
2022/04/26 10:30:56;;;;;;;7.60;1.25;;;;;;;21.93;45.38;99989.44;1776709;79;21260;-53
2022/04/26 10:34:06;;;;;;;3.72;1.20;;;;;;;22.07;45.57;99990.73;1726724;82;21614;-55
2022/04/26 10:37:25;;;;;;;3.72;1.30;;;;;;;22.40;45.52;99986.09;1795533;79;21760;-58
2022/04/26 10:40:32;;;;;;;7.67;1.52;;;;;;;22.53;43.30;99992.70;1801128;79;21243;-54
2022/04/26 10:43:42;;;;;;;6.42;1.52;;;;;;;22.39;43.31;99990.83;1769828;81;21209;-54
2022/04/26 10:46:59;;;;;;;4.45;1.07;;;;;;;22.42;44.71;99991.69;1772244;79;21173;-54
2022/04/26 10:50:05;;;;;;;3.85;1.75;;;;;;;22.64;43.54;99999.53;1774346;79;21216;-54
2022/04/26 10:53:17;;;;;;;5.97;2.00;;;;;;;22.79;42.92;99989.03;1767564;81;21745;-54
2022/04/26 10:56:22;;;;;;;5.00;1.52;;;;;;;23.01;43.32;99999.56;1749721;80;21197;-55
2022/04/26 10:59:29;;;;;;;4.10;0.88;;;;;;;23.07;42.47;100002.72;1738379;81;22013;-53
2022/04/26 11:02:42;;;;;;;6.62;1.50;;;;;;;23.17;42.38;100007.83;1761518;79;21177;-53
2022/04/26 11:05:42;;;;;;;6.70;1.30;;;;;;;23.19;41.97;100003.36;1737716;82;21192;-53
2022/04/26 11:08:49;;;;;;;6.25;1.70;;;;;;;23.07;41.54;100001.32;1741217;80;21201;-52
2022/04/26 11:12:02;;;;;;;3.92;1.30;;;;;;;23.06;41.90;99998.22;1752577;80;21440;-52
2022/04/26 11:15:22;;;;;;;5.60;1.27;;;;;;;23.24;41.46;99997.28;1755815;79;21527;-54
2022/04/26 11:18:31;;;;;;;8.73;2.05;;;;;;;23.30;40.69;100006.55;1756840;80;21268;-56
2022/04/26 11:21:40;;;;;;;6.75;1.80;;;;;;;23.29;41.37;100002.09;1752040;79;21260;-53
2022/04/26 11:28:17;;;;;;;7.75;1.60;;;;;;;23.71;41.33;99992.29;1750720;81;21181;-55
2022/04/26 11:31:25;;;;;;;8.75;1.90;;;;;;;23.43;40.75;99999.97;1718013;82;21232;-55
2022/04/26 11:34:53;;;;;;;8.53;1.65;;;;;;;23.30;41.45;100006.55;1712988;82;21577;-57
2022/04/26 11:38:01;;;;;;;8.35;2.33;;;;;;;23.15;41.42;100002.23;1701777;84;21240;-58
2022/04/26 11:41:16;;;;;;;8.75;1.95;;;;;;;23.06;41.66;100000.47;1759567;81;21641;-58
2022/04/26 11:44:40;;;;;;;11.83;1.92;;;;;;;22.85;42.03;99996.38;1754024;81;21230;-61
2022/04/26 11:47:56;;;;;;;8.95;2.42;;;;;;;22.59;42.07;99986.91;1746370;81;21434;-62
2022/04/26 11:51:14;;;;;;;8.48;1.70;;;;;;;22.69;42.63;99998.16;1763687;78;21767;-61
2022/04/26 11:54:43;;;;;;;7.58;1.60;;;;;;;22.92;42.12;99985.27;1685173;82;21325;-60
2022/04/26 11:57:51;;;;;;;8.13;1.70;;;;;;;23.08;42.37;100002.99;1759585;80;21210;-63
2022/04/26 12:01:23;;;;;;;8.18;1.98;;;;;;;23.04;41.68;99991.51;1762716;80;21289;-61
2022/04/26 12:04:35;;;;;;;11.28;2.30;;;;;;;23.04;41.41;99985.10;1743891;79;21585;-62
2022/04/26 12:07:46;;;;;;;7.90;1.55;;;;;;;22.90;41.46;99994.45;1737410;82;21210;-63
2022/04/26 12:10:58;;;;;;;5.78;1.37;;;;;;;23.00;41.65;99987.58;1731277;82;21222;-60
2022/04/26 12:14:22;;;;;;;5.55;1.42;;;;;;;23.25;40.65;100000.89;1730574;83;21256;-61
2022/04/26 12:17:31;;;;;;;6.62;1.87;;;;;;;23.41;40.56;99991.55;1731710;82;21221;-62
2022/04/26 12:21:13;;;;;;;4.65;1.30;;;;;;;23.55;39.90;99995.01;1669667;85;21250;-61
2022/04/26 12:24:32;;;;;;;6.70;1.82;;;;;;;23.66;39.73;99995.08;1714336;83;21284;-61
2022/04/26 12:27:41;;;;;;;6.53;1.40;;;;;;;23.85;40.27;99997.13;1737374;80;21293;-61
2022/04/26 12:30:55;;;;;;;6.45;1.30;;;;;;;24.02;39.57;99996.98;1739765;82;21376;-62
2022/04/26 12:34:15;;;;;;;7.65;1.82;;;;;;;24.27;39.72;99988.69;1738942;82;21288;-58
2022/04/26 12:37:30;;;;;;;6.60;1.50;;;;;;;24.52;38.50;99990.16;1740135;82;21730;-58
2022/04/26 12:40:33;;;;;;;6.00;1.67;;;;;;;24.54;37.97;99992.98;1739657;82;21237;-59
2022/04/26 12:43:43;;;;;;;6.12;1.57;;;;;;;24.45;37.74;99990.41;1739152;82;21225;-59
2022/04/26 12:50:38;;;;;;;5.50;1.10;;;;;;;24.47;37.93;99983.98;1704337;84;21217;-61
2022/04/26 12:53:43;;;;;;;3.02;1.30;;;;;;;24.55;37.95;99987.65;1705981;84;21625;-61
2022/04/26 12:57:09;;;;;;;6.60;1.72;;;;;;;24.55;37.53;99972.25;1768880;81;21216;-60
2022/04/26 13:00:19;;;;;;;8.15;1.70;;;;;;;24.58;38.12;99971.70;1739650;82;21232;-60
2022/04/26 13:03:29;;;;;;;5.65;1.30;;;;;;;24.71;37.38;99979.59;1740226;81;21217;-58
2022/04/26 13:06:38;;;;;;;6.45;1.30;;;;;;;24.75;36.35;99977.91;1747599;82;21213;-61
2022/04/26 13:09:48;;;;;;;7.12;1.22;;;;;;;24.75;36.61;99990.51;1745080;82;21218;-61
2022/04/26 13:12:56;;;;;;;5.15;1.50;;;;;;;24.66;36.48;99977.30;1739920;82;21226;-60
2022/04/26 13:16:04;;;;;;;3.92;1.30;;;;;;;24.65;36.76;99974.23;1739839;82;21597;-60
2022/04/26 13:19:11;;;;;;;5.33;1.30;;;;;;;24.71;36.57;99979.59;1738858;82;21253;-59
2022/04/26 13:22:20;;;;;;;4.50;1.37;;;;;;;24.67;36.83;99976.23;1739699;82;21209;-61
2022/04/26 13:25:29;;;;;;;6.00;1.50;;;;;;;24.60;36.84;99979.81;1740159;81;21762;-60
2022/04/26 13:28:36;;;;;;;5.95;1.35;;;;;;;24.60;36.74;99984.87;1770413;81;21769;-59
2022/04/26 13:31:42;;;;;;;4.58;1.70;;;;;;;24.52;36.44;99978.41;1762276;81;21217;-59
2022/04/26 13:34:49;;;;;;;4.25;1.00;;;;;;;24.65;37.08;99984.03;1761206;81;21216;-61
2022/04/26 13:37:58;;;;;;;4.97;1.52;;;;;;;24.85;36.74;99984.94;1767678;80;21232;-61
2022/04/26 13:41:06;;;;;;;5.00;1.67;;;;;;;24.97;36.25;99977.08;1693880;84;21236;-61
2022/04/26 13:44:13;;;;;;;5.58;1.75;;;;;;;24.96;35.92;99988.02;1745760;80;21213;-61
2022/04/26 13:47:22;;;;;;;6.78;1.40;;;;;;;24.73;36.04;99988.56;1755158;80;21391;-60
2022/04/26 13:50:31;;;;;;;6.10;1.60;;;;;;;24.48;36.24;99988.45;1765795;81;21243;-60
2022/04/26 13:53:36;;;;;;;6.85;1.52;;;;;;;24.35;36.76;99993.20;1761284;80;21367;-61
2022/04/26 13:56:49;;;;;;;6.50;2.52;;;;;;;24.21;37.01;100000.44;1772650;81;21177;-65
2022/04/26 13:59:57;;;;;;;5.92;2.10;;;;;;;24.03;37.28;100003.70;1773115;79;21284;-55
2022/04/26 14:03:06;;;;;;;8.35;2.60;;;;;;;23.93;38.10;100007.80;1771693;79;21202;-53
2022/04/26 14:06:14;;;;;;;7.83;2.62;;;;;;;23.75;38.99;100018.06;1764282;79;21222;-57
2022/04/26 14:09:22;;;;;;;9.45;3.22;;;;;;;23.53;39.50;100013.17;1758755;80;21213;-61
2022/04/26 14:12:29;;;;;;;9.68;2.80;;;;;;;23.34;39.97;100011.91;1771417;81;21197;-59
2022/04/26 14:22:23;;;;;;;9.55;3.37;;;;;;;24.34;37.48;100011.67;1771225;81;21185;-59
2022/04/26 14:25:32;;;;;;;10.05;3.45;;;;;;;23.87;38.64;100010.29;1700590;82;21297;-60
2022/04/26 14:28:37;;;;;;;9.20;3.10;;;;;;;23.46;40.03;100020.93;1780115;79;21230;-60
2022/04/26 14:31:48;;;;;;;7.55;2.52;;;;;;;23.28;40.86;100018.55;1770286;81;21191;-59
2022/04/26 14:34:55;;;;;;;10.38;2.90;;;;;;;23.56;41.15;100025.20;1771048;81;21190;-59
2022/04/26 14:38:02;;;;;;;11.20;2.47;;;;;;;23.86;40.81;100023.14;1770811;79;21188;-59
2022/04/26 14:41:09;;;;;;;8.18;2.83;;;;;;;23.66;40.63;100022.45;1777339;79;21388;-60
2022/04/26 14:44:15;;;;;;;8.13;2.47;;;;;;;23.95;40.85;100022.91;1776086;79;21745;-60
2022/04/26 14:47:22;;;;;;;10.00;2.55;;;;;;;24.22;39.93;100013.30;1775391;79;21552;-60
2022/04/26 14:50:30;;;;;;;7.33;2.35;;;;;;;23.93;39.67;100028.77;1775195;79;21734;-59
2022/04/26 14:53:35;;;;;;;8.18;2.10;;;;;;;23.48;40.32;100025.70;1789279;79;21213;-61
2022/04/26 14:56:41;;;;;;;6.42;2.45;;;;;;;23.21;41.04;100017.91;1782685;79;21602;-61
2022/04/26 14:59:48;;;;;;;6.22;2.10;;;;;;;23.02;41.49;100023.06;1772794;79;21530;-61
2022/04/26 15:02:54;;;;;;;7.08;2.22;;;;;;;23.02;41.82;100023.61;1751461;79;21212;-59
2022/04/26 15:06:02;;;;;;;7.75;2.50;;;;;;;23.03;41.98;100026.14;1781606;79;21187;-58
2022/04/26 15:19:24;;;;;;;7.12;2.35;;;;;;;24.46;40.31;100018.70;1790411;79;21205;-59
2022/04/26 15:22:31;;;;;;;9.90;2.37;;;;;;;25.50;38.86;100016.92;1802310;79;21732;-62
2022/04/26 15:25:40;;;;;;;6.75;2.27;;;;;;;26.01;37.17;100012.89;1811646;79;21192;-61
2022/04/26 15:28:48;;;;;;;7.42;2.55;;;;;;;25.81;37.10;100014.33;1771054;80;21232;-61
2022/04/26 15:31:55;;;;;;;8.08;2.22;;;;;;;25.51;37.33;100012.98;1771957;81;21189;-61
2022/04/26 15:35:03;;;;;;;8.15;1.87;;;;;;;25.13;37.79;100017.73;1772396;79;21219;-59
2022/04/26 15:38:12;;;;;;;8.60;2.40;;;;;;;24.69;38.31;100008.97;1774044;79;21220;-59
2022/04/26 15:41:19;;;;;;;8.08;1.98;;;;;;;24.30;39.10;100022.56;1784465;79;21710;-59
2022/04/26 15:44:26;;;;;;;8.58;3.75;;;;;;;23.92;39.36;100017.31;1720553;82;21228;-59
2022/04/26 15:47:35;;;;;;;10.32;3.80;;;;;;;23.59;39.83;100021.30;1767225;79;21189;-59
2022/04/26 15:50:42;;;;;;;10.10;4.62;;;;;;;23.44;40.40;100022.59;1776082;79;21193;-60
2022/04/26 15:53:48;;;;;;;15.83;3.52;;;;;;;23.61;40.60;100026.61;1783608;79;21718;-59
2022/04/26 15:56:54;;;;;;;12.43;3.65;;;;;;;23.50;40.82;100033.24;1762621;80;21733;-59
2022/04/26 16:00:01;;;;;;;9.65;2.75;;;;;;;23.22;41.40;100034.95;1779359;79;21312;-59
2022/04/26 16:03:07;;;;;;;9.95;3.30;;;;;;;22.92;41.73;100041.11;1782984;79;21557;-59
2022/04/26 16:06:13;;;;;;;15.13;3.37;;;;;;;22.60;41.98;100043.53;1777445;79;21244;-61
2022/04/26 16:22:54;;;;;;;12.13;3.98;;;;;;;21.16;43.79;100055.94;1802226;79;21214;-61
2022/04/26 16:26:06;;;;;;;8.78;2.87;;;;;;;20.97;44.42;100058.66;1802641;79;21377;-60
2022/04/26 16:29:12;;;;;;;10.32;2.87;;;;;;;20.84;44.71;100067.28;1736315;82;21355;-61
2022/04/26 16:32:21;;;;;;;7.92;3.30;;;;;;;20.71;45.02;100072.61;1801823;79;21189;-62
2022/04/26 16:35:32;;;;;;;11.18;3.60;;;;;;;20.58;45.41;100083.20;1802777;79;21267;-62
2022/04/26 16:38:43;;;;;;;6.83;1.77;;;;;;;20.46;46.37;100122.17;1744392;82;21268;-61
2022/04/26 16:41:54;;;;;;;8.07;1.60;;;;;;;20.13;50.21;100141.44;1801838;79;21904;-57
2022/04/26 16:45:01;;;;;;;4.67;1.60;;;;;;;19.47;53.50;100144.26;1741422;82;21256;-59
2022/04/26 16:48:10;;;;;;;6.58;1.47;;;;;;;18.76;56.26;100142.84;1732414;82;21287;-56
2022/04/26 16:51:25;;;;;;;3.37;1.70;;;;;;;18.20;58.56;100146.44;1786073;79;21355;-60
2022/04/26 16:54:34;;;;;;;5.95;2.50;;;;;;;17.76;60.24;100144.76;1714680;82;21214;-60
2022/04/26 16:57:40;;;;;;;4.62;2.65;;;;;;;17.48;61.84;100151.31;1761583;80;21212;-58
2022/04/26 17:00:48;;;;;;;4.78;2.20;;;;;;;17.22;62.83;100137.67;1762197;81;21197;-57
2022/04/26 17:03:54;;;;;;;5.85;2.00;;;;;;;17.05;63.53;100152.57;1763280;79;21708;-59
2022/04/26 17:07:01;;;;;;;3.12;1.98;;;;;;;16.88;64.63;100157.47;1778825;79;21165;-59
2022/04/26 17:10:08;;;;;;;3.02;2.00;;;;;;;16.69;65.23;100152.90;1707803;84;21545;-59
2022/04/26 17:13:15;;;;;;;2.98;1.40;;;;;;;16.56;65.83;100159.34;1772353;79;21228;-59
2022/04/26 17:16:23;;;;;;;5.33;2.60;;;;;;;16.43;66.50;100165.75;1772573;80;21292;-58
2022/04/26 17:19:29;;;;;;;4.87;2.58;;;;;;;16.31;67.04;100171.66;1772555;80;21296;-60
2022/04/26 17:22:36;;;;;;;6.05;2.50;;;;;;;16.21;67.51;100180.92;1776670;79;21756;-60
2022/04/26 17:25:43;;;;;;;12.28;8.35;;;;;;;16.11;68.17;100177.75;1793308;79;21232;-59
2022/04/26 17:28:50;;;;;;;5.30;2.85;;;;;;;16.03;68.50;100180.73;1736526;82;21213;-58
2022/04/26 17:32:00;;;;;;;6.62;3.52;;;;;;;15.95;68.81;100193.95;1803547;79;21185;-59
2022/04/26 17:35:07;;;;;;;7.72;3.83;;;;;;;15.89;69.09;100195.64;1736438;82;21200;-59
2022/04/26 17:38:14;;;;;;;5.92;3.55;;;;;;;15.85;69.44;100212.33;1802661;79;21213;-59
2022/04/26 17:41:21;;;;;;;4.55;2.22;;;;;;;15.81;69.67;100217.94;1736515;82;21196;-58
2022/04/26 17:44:30;;;;;;;5.12;2.70;;;;;;;15.78;69.86;100216.98;1803296;79;21761;-59
2022/04/26 17:47:39;;;;;;;6.87;1.80;;;;;;;15.76;70.07;100213.59;1730360;82;21786;-59
2022/04/26 17:50:45;;;;;;;4.05;1.87;;;;;;;15.70;70.44;100210.30;1773572;80;21316;-59
2022/04/26 17:57:19;;;;;;;9.33;4.40;;;;;;;15.54;71.41;100209.91;1771159;80;21227;-59
2022/04/26 18:00:26;;;;;;;3.37;2.15;;;;;;;15.44;71.84;100213.08;1741153;82;21252;-59
2022/04/26 18:03:33;;;;;;;3.75;1.92;;;;;;;15.36;72.20;100213.25;1772981;80;21236;-59
2022/04/26 18:06:39;;;;;;;4.58;1.77;;;;;;;15.28;72.59;100209.31;1711878;84;21196;-59
2022/04/26 18:09:45;;;;;;;3.33;2.10;;;;;;;15.21;72.87;100207.58;1712046;84;21276;-59
2022/04/26 18:12:52;;;;;;;5.37;3.00;;;;;;;15.14;73.19;100221.39;1711593;84;21236;-59
2022/04/26 18:16:02;;;;;;;4.33;2.65;;;;;;;15.08;73.51;100218.61;1772727;80;21228;-59
2022/04/26 18:19:08;;;;;;;6.40;4.25;;;;;;;15.04;73.85;100222.31;1740207;82;21199;-59
2022/04/26 18:22:14;;;;;;;11.63;8.85;;;;;;;14.99;74.07;100229.83;1693312;84;21788;-59
2022/04/26 18:26:10;;;;;;;19.75;13.62;;;;;;;14.97;74.31;100233.83;1711156;84;21253;-59
2022/04/26 18:28:29;;;;;;;9.43;5.30;;;;;;;14.94;74.59;100243.90;1741038;82;21840;-59
2022/04/26 18:31:37;;;;;;;7.87;4.22;;;;;;;14.89;74.86;100254.17;1723454;82;21380;-59
2022/04/26 18:34:44;;;;;;;27.80;19.37;;;;;;;14.83;75.07;100261.89;1789064;79;21197;-59
2022/04/26 18:37:53;;;;;;;12.10;8.20;;;;;;;14.79;75.29;100261.97;1702894;84;21245;-60
2022/04/26 18:41:01;;;;;;;8.63;4.53;;;;;;;14.76;75.60;100262.94;1732226;82;21760;-60
2022/04/26 18:44:08;;;;;;;5.90;3.65;;;;;;;14.71;75.84;100264.08;1772878;80;21244;-61
2022/04/26 18:47:14;;;;;;;10.03;4.45;;;;;;;14.65;76.08;100277.30;1738523;82;21267;-59
2022/04/26 18:50:23;;;;;;;7.55;4.67;;;;;;;14.59;76.44;100284.46;1772879;80;21259;-59
2022/04/26 18:53:33;;;;;;;6.62;3.83;;;;;;;14.53;76.69;100292.69;1736676;82;21721;-59
2022/04/26 18:56:40;;;;;;;7.25;3.65;;;;;;;14.46;77.07;100282.17;1738421;82;21216;-58
2022/04/26 18:59:49;;;;;;;5.12;3.20;;;;;;;14.41;77.44;100291.56;1724410;81;21221;-59
2022/04/26 19:02:55;;;;;;;15.08;12.30;;;;;;;14.34;77.85;100285.16;1757546;81;21240;-59
2022/04/26 19:06:04;;;;;;;7.85;4.58;;;;;;;14.27;78.13;100293.92;1765740;81;21339;-60
2022/04/26 19:09:11;;;;;;;7.97;4.47;;;;;;;14.22;78.56;100298.59;1721228;82;21213;-59
2022/04/26 19:12:18;;;;;;;9.40;6.95;;;;;;;14.15;78.69;100305.97;1742007;81;21166;-60
2022/04/26 19:15:29;;;;;;;10.63;7.25;;;;;;;14.07;78.87;100302.50;1721671;83;21182;-59